Check out our new PWSWeather beta!
PWSweather.com
Personal Weather Stations
Station Observations
KPLY111
14 Baltic Ave., Plymouth, MA 02360

14 Baltic Ave.Plymouth, MA 02360

Lat: 41.94, Lon: -70.66

Elevation: 110

Station Type: Davis Vantage Pro Plus 2

http://johnsweather.com/

High Low Average
Temperature 85.6°F29.8°C 70.7°F21.5°C 75.7°F24.3°C
Dew Point 69.0°F20.6°C 66.0°F18.9°C 67.7°F19.8°C
Winds 4.0 mph 6.4 kmh Calm Calm 1.0 mph ESE1.6 kmh ESE
Wind Gusts 13.0 mph20.9 kmh -- 3.0 mph4.8 kmh
Humidity 87% 57% 77%
Pressure 29.83 in1010.2 mb 29.68 in1005.1 mb -
Precipitation 0.61 in15.5 mm - -
Hour Temp Dew Point Humidity Winds Wind Gusts Pressure Precip Precip Rate Daily Precip Total
12:00 AM 78.5°F25.8°C 69.0°F20.6°C 72% Calm Calm -- 29.75 in1007.5 mb 0.00 in0.0 mm 0.00 in0.0 mm 0.00 in0.0 mm
12:05 AM 78.4°F25.8°C 69.0°F20.6°C 72% Calm Calm -- 29.75 in1007.5 mb 0.00 in0.0 mm 0.00 in0.0 mm 0.00 in0.0 mm
12:10 AM 78.3°F25.7°C 69.0°F20.6°C 72% Calm Calm -- 29.75 in1007.5 mb 0.00 in0.0 mm 0.00 in0.0 mm 0.00 in0.0 mm
12:15 AM 78.3°F25.7°C 69.0°F20.6°C 72% Calm Calm -- 29.75 in1007.5 mb 0.00 in0.0 mm 0.00 in0.0 mm 0.00 in0.0 mm
12:20 AM 78.2°F25.7°C 68.0°F20.0°C 72% Calm Calm -- 29.75 in1007.5 mb 0.00 in0.0 mm 0.00 in0.0 mm 0.00 in0.0 mm
12:25 AM 78.1°F25.6°C 68.0°F20.0°C 72% Calm Calm 2.0 mph3.2 kmh 29.75 in1007.5 mb 0.00 in0.0 mm 0.00 in0.0 mm 0.00 in0.0 mm
12:30 AM 78.0°F25.6°C 68.0°F20.0°C 72% Calm Calm 2.0 mph3.2 kmh 29.75 in1007.5 mb 0.00 in0.0 mm 0.00 in0.0 mm 0.00 in0.0 mm
12:35 AM 78.0°F25.6°C 68.0°F20.0°C 72% Calm Calm 1.0 mph1.6 kmh 29.75 in1007.5 mb 0.00 in0.0 mm 0.00 in0.0 mm 0.00 in0.0 mm
12:40 AM 77.8°F25.4°C 68.0°F20.0°C 72% Calm Calm 1.0 mph1.6 kmh 29.75 in1007.5 mb 0.00 in0.0 mm 0.00 in0.0 mm 0.00 in0.0 mm
12:45 AM 77.8°F25.4°C 68.0°F20.0°C 72% 1.0 mph NE1.6 kmh NE 2.0 mph3.2 kmh 29.75 in1007.5 mb 0.00 in0.0 mm 0.00 in0.0 mm 0.00 in0.0 mm
12:50 AM 77.6°F25.3°C 68.0°F20.0°C 72% 1.0 mph NE1.6 kmh NE 2.0 mph3.2 kmh 29.76 in1007.8 mb 0.00 in0.0 mm 0.00 in0.0 mm 0.00 in0.0 mm
12:55 AM 77.5°F25.3°C 68.0°F20.0°C 73% 1.0 mph NE1.6 kmh NE 3.0 mph4.8 kmh 29.76 in1007.8 mb 0.00 in0.0 mm 0.00 in0.0 mm 0.00 in0.0 mm
01:00 AM 77.4°F25.2°C 68.0°F20.0°C 73% Calm Calm 4.0 mph6.4 kmh 29.76 in1007.8 mb 0.00 in0.0 mm 0.00 in0.0 mm 0.00 in0.0 mm
01:05 AM 77.3°F25.2°C 68.0°F20.0°C 73% 1.0 mph NNE1.6 kmh NNE 4.0 mph6.4 kmh 29.76 in1007.8 mb 0.00 in0.0 mm 0.00 in0.0 mm 0.00 in0.0 mm
01:10 AM 77.2°F25.1°C 68.0°F20.0°C 73% Calm Calm 4.0 mph6.4 kmh 29.76 in1007.8 mb 0.00 in0.0 mm 0.00 in0.0 mm 0.00 in0.0 mm
01:15 AM 77.1°F25.1°C 68.0°F20.0°C 73% Calm Calm 2.0 mph3.2 kmh 29.76 in1007.8 mb 0.00 in0.0 mm 0.00 in0.0 mm 0.00 in0.0 mm
01:20 AM 77.0°F25.0°C 68.0°F20.0°C 73% Calm Calm 1.0 mph1.6 kmh 29.76 in1007.8 mb 0.00 in0.0 mm 0.00 in0.0 mm 0.00 in0.0 mm
01:25 AM 76.9°F24.9°C 68.0°F20.0°C 74% Calm Calm 1.0 mph1.6 kmh 29.76 in1007.8 mb 0.00 in0.0 mm 0.00 in0.0 mm 0.00 in0.0 mm
01:30 AM 76.8°F24.9°C 68.0°F20.0°C 74% 1.0 mph N1.6 kmh N 6.0 mph9.7 kmh 29.76 in1007.8 mb 0.00 in0.0 mm 0.00 in0.0 mm 0.00 in0.0 mm
01:35 AM 76.7°F24.8°C 68.0°F20.0°C 74% Calm Calm 6.0 mph9.7 kmh 29.77 in1008.1 mb 0.00 in0.0 mm 0.00 in0.0 mm 0.00 in0.0 mm
01:40 AM 76.6°F24.8°C 68.0°F20.0°C 74% Calm Calm 4.0 mph6.4 kmh 29.76 in1007.8 mb 0.00 in0.0 mm 0.00 in0.0 mm 0.00 in0.0 mm
01:45 AM 76.6°F24.8°C 68.0°F20.0°C 74% Calm Calm 4.0 mph6.4 kmh 29.77 in1008.1 mb 0.00 in0.0 mm 0.00 in0.0 mm 0.00 in0.0 mm
01:50 AM 76.5°F24.7°C 68.0°F20.0°C 74% Calm Calm 5.0 mph8.0 kmh 29.76 in1007.8 mb 0.00 in0.0 mm 0.00 in0.0 mm 0.00 in0.0 mm
01:55 AM 76.4°F24.7°C 68.0°F20.0°C 74% Calm Calm 5.0 mph8.0 kmh 29.77 in1008.1 mb 0.00 in0.0 mm 0.00 in0.0 mm 0.00 in0.0 mm
02:00 AM 76.3°F24.6°C 68.0°F20.0°C 75% Calm Calm 2.0 mph3.2 kmh 29.76 in1007.8 mb 0.00 in0.0 mm 0.00 in0.0 mm 0.00 in0.0 mm
02:05 AM 76.2°F24.6°C 68.0°F20.0°C 75% 1.0 mph SW1.6 kmh SW 2.0 mph3.2 kmh 29.76 in1007.8 mb 0.00 in0.0 mm 0.00 in0.0 mm 0.00 in0.0 mm
02:10 AM 76.1°F24.5°C 68.0°F20.0°C 75% Calm Calm 1.0 mph1.6 kmh 29.76 in1007.8 mb 0.00 in0.0 mm 0.00 in0.0 mm 0.00 in0.0 mm
02:15 AM 76.2°F24.6°C 68.0°F20.0°C 75% 2.0 mph N3.2 kmh N 2.0 mph3.2 kmh 29.76 in1007.8 mb 0.00 in0.0 mm 0.00 in0.0 mm 0.00 in0.0 mm
02:20 AM 76.1°F24.5°C 68.0°F20.0°C 75% Calm Calm 4.0 mph6.4 kmh 29.76 in1007.8 mb 0.00 in0.0 mm 0.00 in0.0 mm 0.00 in0.0 mm
02:25 AM 76.0°F24.4°C 68.0°F20.0°C 75% Calm Calm 4.0 mph6.4 kmh 29.76 in1007.8 mb 0.00 in0.0 mm 0.00 in0.0 mm 0.00 in0.0 mm
02:30 AM 76.0°F24.4°C 68.0°F20.0°C 75% Calm Calm 2.0 mph3.2 kmh 29.76 in1007.8 mb 0.00 in0.0 mm 0.00 in0.0 mm 0.00 in0.0 mm
02:35 AM 75.9°F24.4°C 67.0°F19.4°C 75% Calm Calm 2.0 mph3.2 kmh 29.76 in1007.8 mb 0.00 in0.0 mm 0.00 in0.0 mm 0.00 in0.0 mm
02:40 AM 75.8°F24.3°C 67.0°F19.4°C 75% Calm Calm 1.0 mph1.6 kmh 29.76 in1007.8 mb 0.00 in0.0 mm 0.00 in0.0 mm 0.00 in0.0 mm
02:45 AM 75.7°F24.3°C 67.0°F19.4°C 75% Calm Calm 2.0 mph3.2 kmh 29.76 in1007.8 mb 0.00 in0.0 mm 0.00 in0.0 mm 0.00 in0.0 mm
02:50 AM 75.7°F24.3°C 67.0°F19.4°C 75% Calm Calm 1.0 mph1.6 kmh 29.77 in1008.1 mb 0.00 in0.0 mm 0.00 in0.0 mm 0.00 in0.0 mm
02:55 AM 75.6°F24.2°C 67.0°F19.4°C 75% Calm Calm 1.0 mph1.6 kmh 29.77 in1008.1 mb 0.00 in0.0 mm 0.00 in0.0 mm 0.00 in0.0 mm
03:00 AM 75.5°F24.2°C 67.0°F19.4°C 75% Calm Calm 2.0 mph3.2 kmh 29.77 in1008.1 mb 0.00 in0.0 mm 0.00 in0.0 mm 0.00 in0.0 mm
03:05 AM 75.5°F24.2°C 67.0°F19.4°C 75% Calm Calm 2.0 mph3.2 kmh 29.77 in1008.1 mb 0.00 in0.0 mm 0.00 in0.0 mm 0.00 in0.0 mm
03:10 AM 75.4°F24.1°C 67.0°F19.4°C 76% Calm Calm 1.0 mph1.6 kmh 29.77 in1008.1 mb 0.00 in0.0 mm 0.00 in0.0 mm 0.00 in0.0 mm
03:15 AM 75.4°F24.1°C 67.0°F19.4°C 76% Calm Calm 1.0 mph1.6 kmh 29.77 in1008.1 mb 0.00 in0.0 mm 0.00 in0.0 mm 0.00 in0.0 mm
03:20 AM 75.3°F24.1°C 67.0°F19.4°C 76% Calm Calm -- 29.77 in1008.1 mb 0.00 in0.0 mm 0.00 in0.0 mm 0.00 in0.0 mm
03:25 AM 75.2°F24.0°C 67.0°F19.4°C 75% Calm Calm -- 29.77 in1008.1 mb 0.00 in0.0 mm 0.00 in0.0 mm 0.00 in0.0 mm
03:30 AM 75.2°F24.0°C 67.0°F19.4°C 76% Calm Calm 1.0 mph1.6 kmh 29.77 in1008.1 mb 0.00 in0.0 mm 0.00 in0.0 mm 0.00 in0.0 mm
03:35 AM 75.2°F24.0°C 67.0°F19.4°C 76% Calm Calm 1.0 mph1.6 kmh 29.77 in1008.1 mb 0.00 in0.0 mm 0.00 in0.0 mm 0.00 in0.0 mm
03:40 AM 75.2°F24.0°C 67.0°F19.4°C 76% 1.0 mph NNE1.6 kmh NNE 2.0 mph3.2 kmh 29.77 in1008.1 mb 0.00 in0.0 mm 0.00 in0.0 mm 0.00 in0.0 mm
03:45 AM 75.2°F24.0°C 67.0°F19.4°C 76% Calm Calm 2.0 mph3.2 kmh 29.77 in1008.1 mb 0.00 in0.0 mm 0.00 in0.0 mm 0.00 in0.0 mm
03:50 AM 75.1°F23.9°C 67.0°F19.4°C 76% Calm Calm 2.0 mph3.2 kmh 29.77 in1008.1 mb 0.00 in0.0 mm 0.00 in0.0 mm 0.00 in0.0 mm
03:55 AM 75.0°F23.9°C 67.0°F19.4°C 76% Calm Calm 1.0 mph1.6 kmh 29.77 in1008.1 mb 0.00 in0.0 mm 0.00 in0.0 mm 0.00 in0.0 mm
04:00 AM 75.0°F23.9°C 67.0°F19.4°C 76% Calm Calm 1.0 mph1.6 kmh 29.77 in1008.1 mb 0.00 in0.0 mm 0.00 in0.0 mm 0.00 in0.0 mm
04:05 AM 74.9°F23.8°C 67.0°F19.4°C 76% Calm Calm 2.0 mph3.2 kmh 29.78 in1008.5 mb 0.00 in0.0 mm 0.00 in0.0 mm 0.00 in0.0 mm
04:10 AM 74.9°F23.8°C 67.0°F19.4°C 76% Calm Calm 2.0 mph3.2 kmh 29.78 in1008.5 mb 0.00 in0.0 mm 0.00 in0.0 mm 0.00 in0.0 mm
04:15 AM 74.8°F23.8°C 67.0°F19.4°C 76% Calm Calm 1.0 mph1.6 kmh 29.78 in1008.5 mb 0.00 in0.0 mm 0.00 in0.0 mm 0.00 in0.0 mm
04:20 AM 74.8°F23.8°C 67.0°F19.4°C 76% Calm Calm 1.0 mph1.6 kmh 29.78 in1008.5 mb 0.00 in0.0 mm 0.00 in0.0 mm 0.00 in0.0 mm
04:25 AM 74.7°F23.7°C 67.0°F19.4°C 76% Calm Calm 1.0 mph1.6 kmh 29.78 in1008.5 mb 0.00 in0.0 mm 0.00 in0.0 mm 0.00 in0.0 mm
04:30 AM 74.6°F23.7°C 67.0°F19.4°C 76% Calm Calm -- 29.79 in1008.8 mb 0.00 in0.0 mm 0.00 in0.0 mm 0.00 in0.0 mm
04:35 AM 74.6°F23.7°C 67.0°F19.4°C 76% Calm Calm 1.0 mph1.6 kmh 29.79 in1008.8 mb 0.00 in0.0 mm 0.00 in0.0 mm 0.00 in0.0 mm
04:40 AM 74.6°F23.7°C 67.0°F19.4°C 76% Calm Calm 1.0 mph1.6 kmh 29.79 in1008.8 mb 0.00 in0.0 mm 0.00 in0.0 mm 0.00 in0.0 mm
04:45 AM 74.5°F23.6°C 67.0°F19.4°C 76% Calm Calm -- 29.79 in1008.8 mb 0.00 in0.0 mm 0.00 in0.0 mm 0.00 in0.0 mm
04:50 AM 74.3°F23.5°C 66.0°F18.9°C 76% Calm Calm -- 29.78 in1008.5 mb 0.00 in0.0 mm 0.00 in0.0 mm 0.00 in0.0 mm
04:55 AM 74.3°F23.5°C 66.0°F18.9°C 76% Calm Calm -- 29.79 in1008.8 mb 0.00 in0.0 mm 0.00 in0.0 mm 0.00 in0.0 mm
05:00 AM 74.2°F23.4°C 66.0°F18.9°C 76% Calm Calm -- 29.79 in1008.8 mb 0.00 in0.0 mm 0.00 in0.0 mm 0.00 in0.0 mm
05:05 AM 74.1°F23.4°C 66.0°F18.9°C 76% Calm Calm -- 29.79 in1008.8 mb 0.00 in0.0 mm 0.00 in0.0 mm 0.00 in0.0 mm
05:10 AM 74.0°F23.3°C 66.0°F18.9°C 76% Calm Calm -- 29.79 in1008.8 mb 0.00 in0.0 mm 0.00 in0.0 mm 0.00 in0.0 mm
05:15 AM 73.9°F23.3°C 66.0°F18.9°C 76% Calm Calm -- 29.80 in1009.1 mb 0.00 in0.0 mm 0.00 in0.0 mm 0.00 in0.0 mm
05:20 AM 73.8°F23.2°C 66.0°F18.9°C 77% Calm Calm -- 29.80 in1009.1 mb 0.00 in0.0 mm 0.00 in0.0 mm 0.00 in0.0 mm
05:25 AM 73.8°F23.2°C 66.0°F18.9°C 77% Calm Calm -- 29.80 in1009.1 mb 0.00 in0.0 mm 0.00 in0.0 mm 0.00 in0.0 mm
05:30 AM 73.7°F23.2°C 66.0°F18.9°C 77% Calm Calm -- 29.80 in1009.1 mb 0.00 in0.0 mm 0.00 in0.0 mm 0.00 in0.0 mm
05:35 AM 73.7°F23.2°C 66.0°F18.9°C 77% Calm Calm -- 29.79 in1008.8 mb 0.00 in0.0 mm 0.00 in0.0 mm 0.00 in0.0 mm
05:40 AM 73.7°F23.2°C 66.0°F18.9°C 77% Calm Calm -- 29.80 in1009.1 mb 0.00 in0.0 mm 0.00 in0.0 mm 0.00 in0.0 mm
05:45 AM 73.7°F23.2°C 66.0°F18.9°C 77% 1.0 mph NNE1.6 kmh NNE 1.0 mph1.6 kmh 29.79 in1008.8 mb 0.00 in0.0 mm 0.00 in0.0 mm 0.00 in0.0 mm
05:50 AM 73.7°F23.2°C 66.0°F18.9°C 78% 1.0 mph NNE1.6 kmh NNE 2.0 mph3.2 kmh 29.80 in1009.1 mb 0.00 in0.0 mm 0.00 in0.0 mm 0.00 in0.0 mm
05:55 AM 73.7°F23.2°C 66.0°F18.9°C 78% Calm Calm 2.0 mph3.2 kmh 29.80 in1009.1 mb 0.00 in0.0 mm 0.00 in0.0 mm 0.00 in0.0 mm
06:00 AM 73.7°F23.2°C 66.0°F18.9°C 78% Calm Calm 2.0 mph3.2 kmh 29.80 in1009.1 mb 0.00 in0.0 mm 0.00 in0.0 mm 0.00 in0.0 mm
06:05 AM 73.7°F23.2°C 66.0°F18.9°C 78% Calm Calm 2.0 mph3.2 kmh 29.81 in1009.5 mb 0.00 in0.0 mm 0.00 in0.0 mm 0.00 in0.0 mm
06:10 AM 73.7°F23.2°C 66.0°F18.9°C 78% Calm Calm 1.0 mph1.6 kmh 29.81 in1009.5 mb 0.00 in0.0 mm 0.00 in0.0 mm 0.00 in0.0 mm
06:15 AM 73.7°F23.2°C 66.0°F18.9°C 78% Calm Calm 2.0 mph3.2 kmh 29.81 in1009.5 mb 0.00 in0.0 mm 0.00 in0.0 mm 0.00 in0.0 mm
06:20 AM 73.8°F23.2°C 67.0°F19.4°C 78% 2.0 mph NNE3.2 kmh NNE 2.0 mph3.2 kmh 29.80 in1009.1 mb 0.00 in0.0 mm 0.00 in0.0 mm 0.00 in0.0 mm
06:25 AM 73.9°F23.3°C 67.0°F19.4°C 78% 1.0 mph NNE1.6 kmh NNE 2.0 mph3.2 kmh 29.80 in1009.1 mb 0.00 in0.0 mm 0.00 in0.0 mm 0.00 in0.0 mm
06:30 AM 74.1°F23.4°C 67.0°F19.4°C 78% 2.0 mph NNE3.2 kmh NNE 2.0 mph3.2 kmh 29.81 in1009.5 mb 0.00 in0.0 mm 0.00 in0.0 mm 0.00 in0.0 mm
06:35 AM 74.3°F23.5°C 67.0°F19.4°C 78% Calm Calm 2.0 mph3.2 kmh 29.81 in1009.5 mb 0.00 in0.0 mm 0.00 in0.0 mm 0.00 in0.0 mm
06:40 AM 74.4°F23.6°C 67.0°F19.4°C 78% 2.0 mph NNE3.2 kmh NNE 2.0 mph3.2 kmh 29.81 in1009.5 mb 0.00 in0.0 mm 0.00 in0.0 mm 0.00 in0.0 mm
06:45 AM 74.6°F23.7°C 67.0°F19.4°C 78% 2.0 mph NNE3.2 kmh NNE 2.0 mph3.2 kmh 29.81 in1009.5 mb 0.00 in0.0 mm 0.00 in0.0 mm 0.00 in0.0 mm
06:50 AM 74.9°F23.8°C 68.0°F20.0°C 78% Calm Calm 2.0 mph3.2 kmh 29.81 in1009.5 mb 0.00 in0.0 mm 0.00 in0.0 mm 0.00 in0.0 mm
06:55 AM 75.1°F23.9°C 67.0°F19.4°C 77% 1.0 mph NNE1.6 kmh NNE 4.0 mph6.4 kmh 29.81 in1009.5 mb 0.00 in0.0 mm 0.00 in0.0 mm 0.00 in0.0 mm
07:00 AM 75.4°F24.1°C 68.0°F20.0°C 77% Calm Calm 4.0 mph6.4 kmh 29.81 in1009.5 mb 0.00 in0.0 mm 0.00 in0.0 mm 0.00 in0.0 mm
07:05 AM 75.7°F24.3°C 68.0°F20.0°C 76% 1.0 mph NNE1.6 kmh NNE 4.0 mph6.4 kmh 29.82 in1009.8 mb 0.00 in0.0 mm 0.00 in0.0 mm 0.00 in0.0 mm
07:10 AM 75.9°F24.4°C 68.0°F20.0°C 76% Calm Calm 2.0 mph3.2 kmh 29.82 in1009.8 mb 0.00 in0.0 mm 0.00 in0.0 mm 0.00 in0.0 mm
07:15 AM 76.2°F24.6°C 68.0°F20.0°C 76% 1.0 mph NNE1.6 kmh NNE 2.0 mph3.2 kmh 29.82 in1009.8 mb 0.00 in0.0 mm 0.00 in0.0 mm 0.00 in0.0 mm
07:20 AM 76.5°F24.7°C 68.0°F20.0°C 75% 1.0 mph NNE1.6 kmh NNE 2.0 mph3.2 kmh 29.82 in1009.8 mb 0.00 in0.0 mm 0.00 in0.0 mm 0.00 in0.0 mm
07:25 AM 76.7°F24.8°C 68.0°F20.0°C 75% Calm Calm 2.0 mph3.2 kmh 29.82 in1009.8 mb 0.00 in0.0 mm 0.00 in0.0 mm 0.00 in0.0 mm
07:30 AM 76.9°F24.9°C 68.0°F20.0°C 74% Calm Calm 2.0 mph3.2 kmh 29.82 in1009.8 mb 0.00 in0.0 mm 0.00 in0.0 mm 0.00 in0.0 mm
07:35 AM 77.2°F25.1°C 68.0°F20.0°C 74% 1.0 mph NNE1.6 kmh NNE 2.0 mph3.2 kmh 29.82 in1009.8 mb 0.00 in0.0 mm 0.00 in0.0 mm 0.00 in0.0 mm
07:40 AM 77.5°F25.3°C 68.0°F20.0°C 73% Calm Calm 2.0 mph3.2 kmh 29.81 in1009.5 mb 0.00 in0.0 mm 0.00 in0.0 mm 0.00 in0.0 mm
07:45 AM 78.2°F25.7°C 69.0°F20.6°C 73% 2.0 mph NNE3.2 kmh NNE 2.0 mph3.2 kmh 29.81 in1009.5 mb 0.00 in0.0 mm 0.00 in0.0 mm 0.00 in0.0 mm
07:50 AM 78.9°F26.1°C 69.0°F20.6°C 72% 1.0 mph NNE1.6 kmh NNE 4.0 mph6.4 kmh 29.81 in1009.5 mb 0.00 in0.0 mm 0.00 in0.0 mm 0.00 in0.0 mm
07:55 AM 79.8°F26.6°C 69.0°F20.6°C 70% 1.0 mph NNE1.6 kmh NNE 4.0 mph6.4 kmh 29.81 in1009.5 mb 0.00 in0.0 mm 0.00 in0.0 mm 0.00 in0.0 mm
08:00 AM 80.6°F27.0°C 69.0°F20.6°C 67% 1.0 mph NNE1.6 kmh NNE 4.0 mph6.4 kmh 29.81 in1009.5 mb 0.00 in0.0 mm 0.00 in0.0 mm 0.00 in0.0 mm
08:05 AM 81.5°F27.5°C 69.0°F20.6°C 66% 1.0 mph NNE1.6 kmh NNE 4.0 mph6.4 kmh 29.81 in1009.5 mb 0.00 in0.0 mm 0.00 in0.0 mm 0.00 in0.0 mm
08:10 AM 82.3°F27.9°C 69.0°F20.6°C 64% Calm Calm 2.0 mph3.2 kmh 29.81 in1009.5 mb 0.00 in0.0 mm 0.00 in0.0 mm 0.00 in0.0 mm
08:15 AM 82.9°F28.3°C 69.0°F20.6°C 63% 1.0 mph NNE1.6 kmh NNE 2.0 mph3.2 kmh 29.81 in1009.5 mb 0.00 in0.0 mm 0.00 in0.0 mm 0.00 in0.0 mm
08:20 AM 83.4°F28.6°C 69.0°F20.6°C 62% 1.0 mph NNE1.6 kmh NNE 2.0 mph3.2 kmh 29.81 in1009.5 mb 0.00 in0.0 mm 0.00 in0.0 mm 0.00 in0.0 mm
08:25 AM 83.9°F28.8°C 68.0°F20.0°C 60% 1.0 mph NNE1.6 kmh NNE 4.0 mph6.4 kmh 29.82 in1009.8 mb 0.00 in0.0 mm 0.00 in0.0 mm 0.00 in0.0 mm
08:30 AM 84.3°F29.1°C 68.0°F20.0°C 59% Calm Calm 4.0 mph6.4 kmh 29.82 in1009.8 mb 0.00 in0.0 mm 0.00 in0.0 mm 0.00 in0.0 mm
08:35 AM 84.3°F29.1°C 68.0°F20.0°C 58% 1.0 mph NNE1.6 kmh NNE 4.0 mph6.4 kmh 29.82 in1009.8 mb 0.00 in0.0 mm 0.00 in0.0 mm 0.00 in0.0 mm
08:40 AM 84.3°F29.1°C 68.0°F20.0°C 59% Calm Calm 4.0 mph6.4 kmh 29.82 in1009.8 mb 0.00 in0.0 mm 0.00 in0.0 mm 0.00 in0.0 mm
08:45 AM 84.1°F28.9°C 68.0°F20.0°C 59% 1.0 mph NNE1.6 kmh NNE 4.0 mph6.4 kmh 29.82 in1009.8 mb 0.00 in0.0 mm 0.00 in0.0 mm 0.00 in0.0 mm
08:50 AM 83.9°F28.8°C 68.0°F20.0°C 59% Calm Calm 2.0 mph3.2 kmh 29.83 in1010.2 mb 0.00 in0.0 mm 0.00 in0.0 mm 0.00 in0.0 mm
08:55 AM 83.5°F28.6°C 68.0°F20.0°C 60% 1.0 mph NNE1.6 kmh NNE 2.0 mph3.2 kmh 29.83 in1010.2 mb 0.00 in0.0 mm 0.00 in0.0 mm 0.00 in0.0 mm
09:00 AM 83.1°F28.4°C 68.0°F20.0°C 60% Calm Calm 2.0 mph3.2 kmh 29.83 in1010.2 mb 0.00 in0.0 mm 0.00 in0.0 mm 0.00 in0.0 mm
09:05 AM 82.7°F28.2°C 68.0°F20.0°C 61% Calm Calm 2.0 mph3.2 kmh 29.82 in1009.8 mb 0.00 in0.0 mm 0.00 in0.0 mm 0.00 in0.0 mm
09:10 AM 82.4°F28.0°C 68.0°F20.0°C 62% 1.0 mph NNE1.6 kmh NNE 2.0 mph3.2 kmh 29.83 in1010.2 mb 0.00 in0.0 mm 0.00 in0.0 mm 0.00 in0.0 mm
09:15 AM 82.7°F28.2°C 68.0°F20.0°C 62% Calm Calm 2.0 mph3.2 kmh 29.83 in1010.2 mb 0.00 in0.0 mm 0.00 in0.0 mm 0.00 in0.0 mm
09:20 AM 83.1°F28.4°C 69.0°F20.6°C 62% 1.0 mph NNE1.6 kmh NNE 2.0 mph3.2 kmh 29.83 in1010.2 mb 0.00 in0.0 mm 0.00 in0.0 mm 0.00 in0.0 mm
09:25 AM 83.4°F28.6°C 68.0°F20.0°C 60% 2.0 mph NNE3.2 kmh NNE 2.0 mph3.2 kmh 29.83 in1010.2 mb 0.00 in0.0 mm 0.00 in0.0 mm 0.00 in0.0 mm
09:30 AM 84.1°F28.9°C 68.0°F20.0°C 59% 1.0 mph NNE1.6 kmh NNE 4.0 mph6.4 kmh 29.83 in1010.2 mb 0.00 in0.0 mm 0.00 in0.0 mm 0.00 in0.0 mm
09:35 AM 84.4°F29.1°C 68.0°F20.0°C 58% 1.0 mph NNE1.6 kmh NNE 4.0 mph6.4 kmh 29.82 in1009.8 mb 0.00 in0.0 mm 0.00 in0.0 mm 0.00 in0.0 mm
09:40 AM 84.8°F29.3°C 69.0°F20.6°C 59% Calm Calm 2.0 mph3.2 kmh 29.82 in1009.8 mb 0.00 in0.0 mm 0.00 in0.0 mm 0.00 in0.0 mm
09:45 AM 85.0°F29.4°C 69.0°F20.6°C 58% 1.0 mph NNE1.6 kmh NNE 2.0 mph3.2 kmh 29.82 in1009.8 mb 0.00 in0.0 mm 0.00 in0.0 mm 0.00 in0.0 mm
09:50 AM 85.0°F29.4°C 69.0°F20.6°C 58% 1.0 mph NNE1.6 kmh NNE 4.0 mph6.4 kmh 29.82 in1009.8 mb 0.00 in0.0 mm 0.00 in0.0 mm 0.00 in0.0 mm
09:55 AM 85.4°F29.7°C 69.0°F20.6°C 59% 1.0 mph NNE1.6 kmh NNE 4.0 mph6.4 kmh 29.82 in1009.8 mb 0.00 in0.0 mm 0.00 in0.0 mm 0.00 in0.0 mm
10:00 AM 85.6°F29.8°C 69.0°F20.6°C 57% 1.0 mph WSW1.6 kmh WSW 5.0 mph8.0 kmh 29.82 in1009.8 mb 0.00 in0.0 mm 0.00 in0.0 mm 0.00 in0.0 mm
10:05 AM 85.6°F29.8°C 69.0°F20.6°C 58% 2.0 mph W3.2 kmh W 6.0 mph9.7 kmh 29.82 in1009.8 mb 0.00 in0.0 mm 0.00 in0.0 mm 0.00 in0.0 mm
10:10 AM 85.5°F29.7°C 68.0°F20.0°C 57% 2.0 mph W3.2 kmh W 4.0 mph6.4 kmh 29.82 in1009.8 mb 0.00 in0.0 mm 0.00 in0.0 mm 0.00 in0.0 mm
10:15 AM 85.5°F29.7°C 69.0°F20.6°C 58% 1.0 mph WNW1.6 kmh WNW 4.0 mph6.4 kmh 29.82 in1009.8 mb 0.00 in0.0 mm 0.00 in0.0 mm 0.00 in0.0 mm
10:20 AM 85.3°F29.6°C 69.0°F20.6°C 58% 1.0 mph WNW1.6 kmh WNW 4.0 mph6.4 kmh 29.82 in1009.8 mb 0.00 in0.0 mm 0.00 in0.0 mm 0.00 in0.0 mm
10:25 AM 85.3°F29.6°C 69.0°F20.6°C 58% 2.0 mph WNW3.2 kmh WNW 3.0 mph4.8 kmh 29.82 in1009.8 mb 0.00 in0.0 mm 0.00 in0.0 mm 0.00 in0.0 mm
10:30 AM 85.5°F29.7°C 69.0°F20.6°C 58% 2.0 mph NW3.2 kmh NW 4.0 mph6.4 kmh 29.82 in1009.8 mb 0.00 in0.0 mm 0.00 in0.0 mm 0.00 in0.0 mm
10:35 AM 85.5°F29.7°C 68.0°F20.0°C 57% 1.0 mph NNW1.6 kmh NNW 4.0 mph6.4 kmh 29.82 in1009.8 mb 0.00 in0.0 mm 0.00 in0.0 mm 0.00 in0.0 mm
10:40 AM 85.4°F29.7°C 68.0°F20.0°C 57% 1.0 mph NNW1.6 kmh NNW 5.0 mph8.0 kmh 29.82 in1009.8 mb 0.00 in0.0 mm 0.00 in0.0 mm 0.00 in0.0 mm
02:40 PM 75.3°F24.1°C 68.0°F20.0°C 78% Calm Calm 4.0 mph6.4 kmh 29.80 in1009.1 mb 0.00 in0.0 mm 0.00 in0.0 mm 0.03 in0.8 mm
02:45 PM 75.4°F24.1°C 68.0°F20.0°C 78% 1.0 mph ENE1.6 kmh ENE 4.0 mph6.4 kmh 29.80 in1009.1 mb 0.00 in0.0 mm 0.00 in0.0 mm 0.03 in0.8 mm
02:50 PM 75.4°F24.1°C 69.0°F20.6°C 79% Calm Calm 4.0 mph6.4 kmh 29.79 in1008.8 mb 0.00 in0.0 mm 0.00 in0.0 mm 0.03 in0.8 mm
02:55 PM 75.4°F24.1°C 69.0°F20.6°C 79% 1.0 mph N1.6 kmh N 4.0 mph6.4 kmh 29.79 in1008.8 mb 0.00 in0.0 mm 0.00 in0.0 mm 0.03 in0.8 mm
03:00 PM 75.5°F24.2°C 69.0°F20.6°C 79% 1.0 mph E1.6 kmh E 5.0 mph8.0 kmh 29.79 in1008.8 mb 0.00 in0.0 mm 0.00 in0.0 mm 0.03 in0.8 mm
03:05 PM 75.6°F24.2°C 69.0°F20.6°C 79% 1.0 mph ESE1.6 kmh ESE 5.0 mph8.0 kmh 29.79 in1008.8 mb 0.00 in0.0 mm 0.00 in0.0 mm 0.03 in0.8 mm
03:10 PM 75.7°F24.3°C 69.0°F20.6°C 79% 1.0 mph ESE1.6 kmh ESE 5.0 mph8.0 kmh 29.79 in1008.8 mb 0.00 in0.0 mm 0.00 in0.0 mm 0.03 in0.8 mm
03:15 PM 75.7°F24.3°C 69.0°F20.6°C 79% Calm Calm 4.0 mph6.4 kmh 29.79 in1008.8 mb 0.00 in0.0 mm 0.00 in0.0 mm 0.03 in0.8 mm
03:20 PM 75.7°F24.3°C 69.0°F20.6°C 79% 1.0 mph SE1.6 kmh SE 4.0 mph6.4 kmh 29.79 in1008.8 mb 0.00 in0.0 mm 0.00 in0.0 mm 0.03 in0.8 mm
03:25 PM 75.7°F24.3°C 69.0°F20.6°C 79% 1.0 mph SE1.6 kmh SE 7.0 mph11.3 kmh 29.78 in1008.5 mb 0.00 in0.0 mm 0.00 in0.0 mm 0.03 in0.8 mm
03:30 PM 75.7°F24.3°C 69.0°F20.6°C 80% 1.0 mph SSW1.6 kmh SSW 7.0 mph11.3 kmh 29.78 in1008.5 mb 0.00 in0.0 mm 0.00 in0.0 mm 0.03 in0.8 mm
03:35 PM 75.8°F24.3°C 69.0°F20.6°C 80% Calm Calm 4.0 mph6.4 kmh 29.78 in1008.5 mb 0.00 in0.0 mm 0.00 in0.0 mm 0.03 in0.8 mm
03:40 PM 75.8°F24.3°C 69.0°F20.6°C 80% Calm Calm 4.0 mph6.4 kmh 29.78 in1008.5 mb 0.00 in0.0 mm 0.00 in0.0 mm 0.03 in0.8 mm
03:45 PM 75.9°F24.4°C 69.0°F20.6°C 80% Calm Calm 2.0 mph3.2 kmh 29.77 in1008.1 mb 0.00 in0.0 mm 0.00 in0.0 mm 0.03 in0.8 mm
03:50 PM 75.9°F24.4°C 69.0°F20.6°C 80% Calm Calm 2.0 mph3.2 kmh 29.77 in1008.1 mb 0.00 in0.0 mm 0.00 in0.0 mm 0.03 in0.8 mm
03:55 PM 75.9°F24.4°C 69.0°F20.6°C 80% 1.0 mph SE1.6 kmh SE 5.0 mph8.0 kmh 29.78 in1008.5 mb 0.00 in0.0 mm 0.00 in0.0 mm 0.03 in0.8 mm
04:00 PM 75.9°F24.4°C 69.0°F20.6°C 80% 1.0 mph SW1.6 kmh SW 5.0 mph8.0 kmh 29.77 in1008.1 mb 0.00 in0.0 mm 0.00 in0.0 mm 0.03 in0.8 mm
04:05 PM 75.9°F24.4°C 69.0°F20.6°C 80% Calm Calm 4.0 mph6.4 kmh 29.78 in1008.5 mb 0.00 in0.0 mm 0.00 in0.0 mm 0.03 in0.8 mm
04:10 PM 75.9°F24.4°C 69.0°F20.6°C 80% Calm Calm 4.0 mph6.4 kmh 29.78 in1008.5 mb 0.00 in0.0 mm 0.00 in0.0 mm 0.03 in0.8 mm
04:15 PM 75.8°F24.3°C 69.0°F20.6°C 80% Calm Calm 2.0 mph3.2 kmh 29.77 in1008.1 mb 0.00 in0.0 mm 0.00 in0.0 mm 0.03 in0.8 mm
04:20 PM 75.8°F24.3°C 69.0°F20.6°C 80% 1.0 mph WNW1.6 kmh WNW 2.0 mph3.2 kmh 29.77 in1008.1 mb 0.00 in0.0 mm 0.00 in0.0 mm 0.03 in0.8 mm
04:25 PM 75.7°F24.3°C 69.0°F20.6°C 80% 1.0 mph SSE1.6 kmh SSE 2.0 mph3.2 kmh 29.77 in1008.1 mb 0.00 in0.0 mm 0.00 in0.0 mm 0.03 in0.8 mm
04:30 PM 75.6°F24.2°C 69.0°F20.6°C 80% Calm Calm 2.0 mph3.2 kmh 29.77 in1008.1 mb 0.00 in0.0 mm 0.00 in0.0 mm 0.03 in0.8 mm
04:35 PM 75.6°F24.2°C 69.0°F20.6°C 80% Calm Calm 2.0 mph3.2 kmh 29.77 in1008.1 mb 0.00 in0.0 mm 0.00 in0.0 mm 0.03 in0.8 mm
04:40 PM 75.5°F24.2°C 69.0°F20.6°C 80% Calm Calm 2.0 mph3.2 kmh 29.78 in1008.5 mb 0.00 in0.0 mm 0.00 in0.0 mm 0.03 in0.8 mm
04:45 PM 75.5°F24.2°C 69.0°F20.6°C 80% 1.0 mph SSE1.6 kmh SSE 2.0 mph3.2 kmh 29.78 in1008.5 mb 0.00 in0.0 mm 0.00 in0.0 mm 0.03 in0.8 mm
04:50 PM 75.5°F24.2°C 69.0°F20.6°C 80% Calm Calm 2.0 mph3.2 kmh 29.78 in1008.5 mb 0.00 in0.0 mm 0.00 in0.0 mm 0.03 in0.8 mm
04:55 PM 75.3°F24.1°C 69.0°F20.6°C 80% Calm Calm 2.0 mph3.2 kmh 29.77 in1008.1 mb 0.00 in0.0 mm 0.00 in0.0 mm 0.03 in0.8 mm
05:00 PM 75.1°F23.9°C 69.0°F20.6°C 80% Calm Calm 2.0 mph3.2 kmh 29.77 in1008.1 mb 0.00 in0.0 mm 0.00 in0.0 mm 0.03 in0.8 mm
05:05 PM 75.0°F23.9°C 68.0°F20.0°C 80% 1.0 mph SSE1.6 kmh SSE 2.0 mph3.2 kmh 29.77 in1008.1 mb 0.00 in0.0 mm 0.00 in0.0 mm 0.03 in0.8 mm
05:10 PM 74.9°F23.8°C 69.0°F20.6°C 81% Calm Calm 2.0 mph3.2 kmh 29.77 in1008.1 mb 0.00 in0.0 mm 0.00 in0.0 mm 0.03 in0.8 mm
05:15 PM 74.8°F23.8°C 69.0°F20.6°C 81% 1.0 mph SSE1.6 kmh SSE 2.0 mph3.2 kmh 29.77 in1008.1 mb 0.00 in0.0 mm 0.00 in0.0 mm 0.03 in0.8 mm
05:20 PM 74.6°F23.7°C 68.0°F20.0°C 81% Calm Calm 2.0 mph3.2 kmh 29.77 in1008.1 mb 0.00 in0.0 mm 0.00 in0.0 mm 0.03 in0.8 mm
05:30 PM 74.5°F23.6°C 68.0°F20.0°C 81% Calm Calm 2.0 mph3.2 kmh 29.76 in1007.8 mb 0.00 in0.0 mm 0.00 in0.0 mm 0.03 in0.8 mm
05:35 PM 74.4°F23.6°C 68.0°F20.0°C 81% Calm Calm 1.0 mph1.6 kmh 29.76 in1007.8 mb 0.00 in0.0 mm 0.00 in0.0 mm 0.03 in0.8 mm
05:40 PM 74.3°F23.5°C 68.0°F20.0°C 81% Calm Calm 1.0 mph1.6 kmh 29.77 in1008.1 mb 0.00 in0.0 mm 0.00 in0.0 mm 0.03 in0.8 mm
05:45 PM 74.3°F23.5°C 68.0°F20.0°C 81% Calm Calm 1.0 mph1.6 kmh 29.76 in1007.8 mb 0.00 in0.0 mm 0.00 in0.0 mm 0.03 in0.8 mm
05:50 PM 74.1°F23.4°C 68.0°F20.0°C 81% 1.0 mph S1.6 kmh S 2.0 mph3.2 kmh 29.76 in1007.8 mb 0.00 in0.0 mm 0.00 in0.0 mm 0.03 in0.8 mm
05:55 PM 74.1°F23.4°C 68.0°F20.0°C 81% Calm Calm 2.0 mph3.2 kmh 29.76 in1007.8 mb 0.00 in0.0 mm 0.00 in0.0 mm 0.03 in0.8 mm
06:00 PM 74.0°F23.3°C 68.0°F20.0°C 82% Calm Calm 2.0 mph3.2 kmh 29.76 in1007.8 mb 0.00 in0.0 mm 0.00 in0.0 mm 0.03 in0.8 mm
06:05 PM 73.8°F23.2°C 68.0°F20.0°C 82% 1.0 mph S1.6 kmh S 4.0 mph6.4 kmh 29.76 in1007.8 mb 0.00 in0.0 mm 0.00 in0.0 mm 0.03 in0.8 mm
06:10 PM 73.7°F23.2°C 68.0°F20.0°C 82% Calm Calm 4.0 mph6.4 kmh 29.76 in1007.8 mb 0.00 in0.0 mm 0.00 in0.0 mm 0.03 in0.8 mm
06:15 PM 73.6°F23.1°C 68.0°F20.0°C 82% Calm Calm 2.0 mph3.2 kmh 29.76 in1007.8 mb 0.00 in0.0 mm 0.00 in0.0 mm 0.03 in0.8 mm
06:20 PM 73.5°F23.1°C 68.0°F20.0°C 82% Calm Calm 1.0 mph1.6 kmh 29.76 in1007.8 mb 0.00 in0.0 mm 0.00 in0.0 mm 0.03 in0.8 mm
06:25 PM 73.5°F23.1°C 68.0°F20.0°C 83% 1.0 mph S1.6 kmh S 1.0 mph1.6 kmh 29.76 in1007.8 mb 0.00 in0.0 mm 0.00 in0.0 mm 0.03 in0.8 mm
06:30 PM 73.5°F23.1°C 68.0°F20.0°C 83% Calm Calm 2.0 mph3.2 kmh 29.76 in1007.8 mb 0.00 in0.0 mm 0.00 in0.0 mm 0.03 in0.8 mm
06:35 PM 73.4°F23.0°C 68.0°F20.0°C 83% Calm Calm 2.0 mph3.2 kmh 29.76 in1007.8 mb 0.00 in0.0 mm 0.00 in0.0 mm 0.03 in0.8 mm
06:40 PM 73.3°F22.9°C 68.0°F20.0°C 83% Calm Calm 1.0 mph1.6 kmh 29.75 in1007.5 mb 0.00 in0.0 mm 0.00 in0.0 mm 0.03 in0.8 mm
06:45 PM 73.3°F22.9°C 68.0°F20.0°C 83% Calm Calm 1.0 mph1.6 kmh 29.75 in1007.5 mb 0.00 in0.0 mm 0.00 in0.0 mm 0.03 in0.8 mm
06:50 PM 73.3°F22.9°C 68.0°F20.0°C 83% Calm Calm 1.0 mph1.6 kmh 29.75 in1007.5 mb 0.00 in0.0 mm 0.00 in0.0 mm 0.03 in0.8 mm
06:55 PM 73.2°F22.9°C 68.0°F20.0°C 83% 1.0 mph NE1.6 kmh NE 2.0 mph3.2 kmh 29.75 in1007.5 mb 0.00 in0.0 mm 0.00 in0.0 mm 0.03 in0.8 mm
07:00 PM 73.2°F22.9°C 68.0°F20.0°C 83% 1.0 mph SSE1.6 kmh SSE 5.0 mph8.0 kmh 29.75 in1007.5 mb 0.00 in0.0 mm 0.00 in0.0 mm 0.04 in1.0 mm
07:05 PM 73.2°F22.9°C 68.0°F20.0°C 84% Calm Calm 5.0 mph8.0 kmh 29.75 in1007.5 mb 0.00 in0.0 mm 0.00 in0.0 mm 0.04 in1.0 mm
07:10 PM 73.2°F22.9°C 68.0°F20.0°C 84% 1.0 mph N1.6 kmh N 4.0 mph6.4 kmh 29.75 in1007.5 mb 0.00 in0.0 mm 0.00 in0.0 mm 0.04 in1.0 mm
07:15 PM 73.1°F22.8°C 68.0°F20.0°C 84% 2.0 mph SE3.2 kmh SE 4.0 mph6.4 kmh 29.75 in1007.5 mb 0.00 in0.0 mm 0.00 in0.0 mm 0.04 in1.0 mm
07:20 PM 73.0°F22.8°C 68.0°F20.0°C 84% 1.0 mph E1.6 kmh E 4.0 mph6.4 kmh 29.75 in1007.5 mb 0.00 in0.0 mm 0.00 in0.0 mm 0.04 in1.0 mm
07:25 PM 72.9°F22.7°C 68.0°F20.0°C 84% 1.0 mph E1.6 kmh E 3.0 mph4.8 kmh 29.75 in1007.5 mb 0.00 in0.0 mm 0.00 in0.0 mm 0.04 in1.0 mm
07:30 PM 72.8°F22.7°C 68.0°F20.0°C 84% Calm Calm 5.0 mph8.0 kmh 29.75 in1007.5 mb 0.00 in0.0 mm 0.00 in0.0 mm 0.04 in1.0 mm
07:35 PM 72.7°F22.6°C 68.0°F20.0°C 84% Calm Calm 5.0 mph8.0 kmh 29.76 in1007.8 mb 0.00 in0.0 mm 0.00 in0.0 mm 0.04 in1.0 mm
07:40 PM 72.6°F22.6°C 68.0°F20.0°C 84% 4.0 mph ESE6.4 kmh ESE 8.0 mph12.9 kmh 29.75 in1007.5 mb 0.00 in0.0 mm 0.00 in0.0 mm 0.04 in1.0 mm
07:45 PM 72.5°F22.5°C 67.0°F19.4°C 84% 2.0 mph ENE3.2 kmh ENE 8.0 mph12.9 kmh 29.76 in1007.8 mb 0.00 in0.0 mm 0.00 in0.0 mm 0.04 in1.0 mm
07:50 PM 72.4°F22.4°C 67.0°F19.4°C 84% Calm Calm 8.0 mph12.9 kmh 29.76 in1007.8 mb 0.00 in0.0 mm 0.00 in0.0 mm 0.04 in1.0 mm
07:55 PM 72.3°F22.4°C 67.0°F19.4°C 84% Calm Calm 7.0 mph11.3 kmh 29.76 in1007.8 mb 0.00 in0.0 mm 0.00 in0.0 mm 0.04 in1.0 mm
08:00 PM 72.3°F22.4°C 67.0°F19.4°C 84% Calm Calm 4.0 mph6.4 kmh 29.76 in1007.8 mb 0.00 in0.0 mm 0.00 in0.0 mm 0.04 in1.0 mm
08:05 PM 72.3°F22.4°C 67.0°F19.4°C 84% 1.0 mph N1.6 kmh N 3.0 mph4.8 kmh 29.77 in1008.1 mb 0.00 in0.0 mm 0.00 in0.0 mm 0.04 in1.0 mm
08:10 PM 72.3°F22.4°C 67.0°F19.4°C 84% 2.0 mph N3.2 kmh N 3.0 mph4.8 kmh 29.77 in1008.1 mb 0.00 in0.0 mm 0.00 in0.0 mm 0.04 in1.0 mm
08:15 PM 72.3°F22.4°C 67.0°F19.4°C 84% 1.0 mph N1.6 kmh N 4.0 mph6.4 kmh 29.78 in1008.5 mb 0.00 in0.0 mm 0.00 in0.0 mm 0.04 in1.0 mm
08:20 PM 72.3°F22.4°C 67.0°F19.4°C 84% 1.0 mph N1.6 kmh N 2.0 mph3.2 kmh 29.77 in1008.1 mb 0.00 in0.0 mm 0.00 in0.0 mm 0.04 in1.0 mm
08:25 PM 72.3°F22.4°C 67.0°F19.4°C 84% Calm Calm 4.0 mph6.4 kmh 29.77 in1008.1 mb 0.00 in0.0 mm 0.00 in0.0 mm 0.05 in1.3 mm
08:30 PM 72.3°F22.4°C 67.0°F19.4°C 84% 1.0 mph N1.6 kmh N 5.0 mph8.0 kmh 29.77 in1008.1 mb 0.00 in0.0 mm 0.00 in0.0 mm 0.05 in1.3 mm
08:35 PM 72.3°F22.4°C 68.0°F20.0°C 85% 1.0 mph N1.6 kmh N 5.0 mph8.0 kmh 29.77 in1008.1 mb 0.00 in0.0 mm 0.00 in0.0 mm 0.05 in1.3 mm
08:40 PM 72.2°F22.3°C 68.0°F20.0°C 85% 2.0 mph N3.2 kmh N 3.0 mph4.8 kmh 29.77 in1008.1 mb 0.00 in0.0 mm 0.00 in0.0 mm 0.06 in1.5 mm
08:45 PM 72.1°F22.3°C 67.0°F19.4°C 85% Calm Calm 5.0 mph8.0 kmh 29.77 in1008.1 mb 0.54 in13.7 mm 6.48 in164.6 mm 0.10 in2.5 mm
08:50 PM 71.9°F22.2°C 67.0°F19.4°C 85% Calm Calm 5.0 mph8.0 kmh 29.78 in1008.5 mb 2.46 in62.5 mm 23.04 in585.2 mm 0.25 in6.4 mm
08:55 PM 71.7°F22.1°C 67.0°F19.4°C 85% 1.0 mph NNW1.6 kmh NNW 3.0 mph4.8 kmh 29.75 in1007.5 mb 1.65 in41.9 mm 0.00 in0.0 mm 0.41 in10.4 mm
09:00 PM 71.6°F22.0°C 67.0°F19.4°C 85% Calm Calm 6.0 mph9.7 kmh 29.77 in1008.1 mb 0.24 in6.1 mm 0.00 in0.0 mm 0.43 in10.9 mm
09:05 PM 71.3°F21.8°C 67.0°F19.4°C 85% 4.0 mph SW6.4 kmh SW 6.0 mph9.7 kmh 29.74 in1007.1 mb 0.24 in6.1 mm 0.00 in0.0 mm 0.45 in11.4 mm
09:10 PM 71.2°F21.8°C 67.0°F19.4°C 85% Calm Calm 4.0 mph6.4 kmh 29.74 in1007.1 mb 0.22 in5.6 mm 0.00 in0.0 mm 0.47 in11.9 mm
09:15 PM 71.1°F21.7°C 66.0°F18.9°C 85% Calm Calm 4.0 mph6.4 kmh 29.73 in1006.8 mb 0.21 in5.3 mm 0.00 in0.0 mm 0.49 in12.4 mm
09:20 PM 71.0°F21.7°C 66.0°F18.9°C 85% 1.0 mph ESE1.6 kmh ESE 5.0 mph8.0 kmh 29.73 in1006.8 mb 0.13 in3.3 mm 0.00 in0.0 mm 0.50 in12.7 mm
09:25 PM 70.9°F21.6°C 66.0°F18.9°C 85% 2.0 mph SW3.2 kmh SW 5.0 mph8.0 kmh 29.73 in1006.8 mb 0.12 in3.0 mm 0.00 in0.0 mm 0.51 in13.0 mm
09:30 PM 70.9°F21.6°C 66.0°F18.9°C 85% 4.0 mph E6.4 kmh E 7.0 mph11.3 kmh 29.72 in1006.4 mb 0.17 in4.3 mm 0.60 in15.2 mm 0.53 in13.5 mm
09:35 PM 70.9°F21.6°C 66.0°F18.9°C 85% 1.0 mph ENE1.6 kmh ENE 8.0 mph12.9 kmh 29.71 in1006.1 mb 0.11 in2.8 mm 0.00 in0.0 mm 0.53 in13.5 mm
09:40 PM 70.9°F21.6°C 66.0°F18.9°C 85% 1.0 mph S1.6 kmh S 11.0 mph17.7 kmh 29.71 in1006.1 mb 0.14 in3.6 mm 0.36 in9.1 mm 0.55 in14.0 mm
09:45 PM 70.8°F21.6°C 67.0°F19.4°C 86% 2.0 mph N3.2 kmh N 11.0 mph17.7 kmh 29.72 in1006.4 mb 0.11 in2.8 mm 0.00 in0.0 mm 0.55 in14.0 mm
09:50 PM 70.8°F21.6°C 67.0°F19.4°C 86% 1.0 mph S1.6 kmh S 8.0 mph12.9 kmh 29.72 in1006.4 mb 0.16 in4.1 mm 0.60 in15.2 mm 0.57 in14.5 mm
09:55 PM 70.8°F21.6°C 67.0°F19.4°C 86% 1.0 mph ENE1.6 kmh ENE 8.0 mph12.9 kmh 29.71 in1006.1 mb 0.14 in3.6 mm 0.00 in0.0 mm 0.58 in14.7 mm
10:00 PM 70.8°F21.6°C 67.0°F19.4°C 86% 2.0 mph SW3.2 kmh SW 11.0 mph17.7 kmh 29.72 in1006.4 mb 0.16 in4.1 mm 0.02 in0.5 mm 0.59 in15.0 mm
10:05 PM 70.7°F21.5°C 66.0°F18.9°C 86% 2.0 mph SSE3.2 kmh SSE 11.0 mph17.7 kmh 29.72 in1006.4 mb 0.11 in2.8 mm 0.00 in0.0 mm 0.60 in15.2 mm
10:10 PM 70.7°F21.5°C 66.0°F18.9°C 86% 2.0 mph S3.2 kmh S 12.0 mph19.3 kmh 29.71 in1006.1 mb 0.11 in2.8 mm 0.00 in0.0 mm 0.61 in15.5 mm
10:15 PM 70.8°F21.6°C 67.0°F19.4°C 86% 4.0 mph SE6.4 kmh SE 12.0 mph19.3 kmh 29.72 in1006.4 mb 0.09 in2.3 mm 0.00 in0.0 mm 0.61 in15.5 mm
10:20 PM 70.8°F21.6°C 67.0°F19.4°C 86% 1.0 mph NE1.6 kmh NE 13.0 mph20.9 kmh 29.72 in1006.4 mb 0.05 in1.3 mm 0.00 in0.0 mm 0.61 in15.5 mm
10:25 PM 70.8°F21.6°C 67.0°F19.4°C 86% 1.0 mph E1.6 kmh E 13.0 mph20.9 kmh 29.72 in1006.4 mb 0.04 in1.0 mm 0.00 in0.0 mm 0.61 in15.5 mm
10:30 PM 70.9°F21.6°C 67.0°F19.4°C 86% 4.0 mph ESE6.4 kmh ESE 6.0 mph9.7 kmh 29.72 in1006.4 mb 0.00 in0.0 mm 0.00 in0.0 mm 0.61 in15.5 mm
10:35 PM 71.0°F21.7°C 67.0°F19.4°C 86% 1.0 mph SE1.6 kmh SE 6.0 mph9.7 kmh 29.71 in1006.1 mb 0.00 in0.0 mm 0.00 in0.0 mm 0.61 in15.5 mm
10:40 PM 71.0°F21.7°C 67.0°F19.4°C 86% 4.0 mph ESE6.4 kmh ESE 7.0 mph11.3 kmh 29.70 in1005.8 mb 0.00 in0.0 mm 0.00 in0.0 mm 0.61 in15.5 mm
10:45 PM 71.1°F21.7°C 67.0°F19.4°C 86% Calm Calm 7.0 mph11.3 kmh 29.69 in1005.4 mb 0.00 in0.0 mm 0.00 in0.0 mm 0.61 in15.5 mm
10:50 PM 71.1°F21.7°C 67.0°F19.4°C 86% 1.0 mph ESE1.6 kmh ESE 7.0 mph11.3 kmh 29.69 in1005.4 mb 0.00 in0.0 mm 0.00 in0.0 mm 0.61 in15.5 mm
10:55 PM 71.2°F21.8°C 67.0°F19.4°C 87% 1.0 mph ESE1.6 kmh ESE 5.0 mph8.0 kmh 29.69 in1005.4 mb 0.00 in0.0 mm 0.00 in0.0 mm 0.61 in15.5 mm
11:00 PM 71.2°F21.8°C 67.0°F19.4°C 87% 1.0 mph E1.6 kmh E 5.0 mph8.0 kmh 29.68 in1005.1 mb 0.00 in0.0 mm 0.00 in0.0 mm 2.61 in66.3 mm
11:05 PM 71.2°F21.8°C 67.0°F19.4°C 87% Calm Calm 5.0 mph8.0 kmh 29.68 in1005.1 mb 0.00 in0.0 mm 0.00 in0.0 mm 0.01 in0.3 mm
11:10 PM 71.2°F21.8°C 67.0°F19.4°C 87% 1.0 mph SE1.6 kmh SE 2.0 mph3.2 kmh 29.69 in1005.4 mb 0.00 in0.0 mm 0.00 in0.0 mm 0.01 in0.3 mm
11:15 PM 71.2°F21.8°C 67.0°F19.4°C 87% 1.0 mph SE1.6 kmh SE 4.0 mph6.4 kmh 29.69 in1005.4 mb 0.00 in0.0 mm 0.00 in0.0 mm 0.01 in0.3 mm
11:20 PM 71.3°F21.8°C 67.0°F19.4°C 87% Calm Calm 4.0 mph6.4 kmh 29.69 in1005.4 mb 0.00 in0.0 mm 0.00 in0.0 mm 0.01 in0.3 mm
11:25 PM 71.2°F21.8°C 67.0°F19.4°C 87% Calm Calm 4.0 mph6.4 kmh 29.70 in1005.8 mb 0.00 in0.0 mm 0.00 in0.0 mm 0.01 in0.3 mm
11:30 PM 71.2°F21.8°C 67.0°F19.4°C 87% Calm Calm 2.0 mph3.2 kmh 29.70 in1005.8 mb 0.00 in0.0 mm 0.00 in0.0 mm 0.01 in0.3 mm
11:35 PM 71.2°F21.8°C 67.0°F19.4°C 87% 1.0 mph SE1.6 kmh SE 2.0 mph3.2 kmh 29.70 in1005.8 mb 0.00 in0.0 mm 0.00 in0.0 mm 0.01 in0.3 mm
11:40 PM 71.2°F21.8°C 67.0°F19.4°C 87% 1.0 mph SE1.6 kmh SE 2.0 mph3.2 kmh 29.70 in1005.8 mb 0.00 in0.0 mm 0.00 in0.0 mm 0.01 in0.3 mm
11:45 PM 71.2°F21.8°C 67.0°F19.4°C 87% Calm Calm 2.0 mph3.2 kmh 29.70 in1005.8 mb 0.00 in0.0 mm 0.00 in0.0 mm 0.01 in0.3 mm
11:50 PM 71.2°F21.8°C 67.0°F19.4°C 87% Calm Calm 2.0 mph3.2 kmh 29.70 in1005.8 mb 0.00 in0.0 mm 0.00 in0.0 mm 0.01 in0.3 mm
11:55 PM 71.2°F21.8°C 67.0°F19.4°C 87% Calm Calm 2.0 mph3.2 kmh 29.70 in1005.8 mb 0.00 in0.0 mm 0.00 in0.0 mm 0.01 in0.3 mm